Watertown, SD

7:04 AM CDT on August 01, 2014 (GMT -0500)
derby downs (KSDWATER2) Elev 1810 ft | 44.91 °N, 97.16 °W | Change Station

Current weather conditions updated 9 minutes ago

Clear
Clear
57.6 °F
Feels Like 57.6 °F
N
0.0
Wind Variable Wind from North

Today is forecast to be nearly the same temperature as yesterday.

Today
High -- | Low -- °F
--% Chance of Precip.
Yesterday
High -- | Low -- °F
Precip. -- in
6:14 AM 8:54 PM
Waxing Crescent, 26% visible
Pressure 30.09 in
Visibility 10.0 miles
Clouds Clear
Dew Point 56 °F
Humidity 93%
Rainfall 0.00 in
Snow Depth Not available.
UV 0 out of 12
Pollen 7.30 out of 12
Air Quality Not available.
Flu Activity Not available.
METAR KATY 011153Z AUTO 00000KT 10SM CLR 12/11 A3010 RMK AO2 SLP188 T01220111 10161 20117 53008

More Conditions Fewer Conditions

Pressure 30.09 in
Visibility 10.0 miles
Clouds Clear
Dew Point 56 °F
Humidity 93%
Rainfall 0.00 in
Snow Depth Not available.
UV 0 out of 12
Pollen 7.30 out of 12
Air Quality Not available.
Flu Activity Not available.
METAR KATY 011153Z AUTO 00000KT 10SM CLR 12/11 A3010 RMK AO2 SLP188 T01220111 10161 20117 53008

More Conditions Fewer Conditions

10-Day Weather Forecast

Almanac

Astronomy

Aug. 01, 2014 Rise Set
Actual Time 6:14 AM CDT 8:54 PM CDT
Civil Twilight 5:40 AM CDT 9:28 PM CDT
Nautical Twilight 4:58 AM CDT 10:10 PM CDT
Astronomical Twilight 4:09 AM CDT 10:59 PM CDT
Moon 11:55 AM CDT 11:22 PM CDT
Length of Visible Light 15h 47m
Length of Day
14h 40m
Tomorrow will be 2m 25s shorter.
Waxing Crescent, 26% of the Moon is Illuminated
Today
Waxing Crescent
Aug 3
First Quarter
Aug 10
Full
Aug 17
Last Quarter
Aug 25
New

Today's Extremes

State Highs State Lows

Community

WunderPhotos

Upload Photos

1,739,544 photos uploaded!

Nearby

Snow Depth

Station Depth Elevation
Blind Park 1 in 6890 ft

Earthquake Activity

City Distance Mag. Time & Date
No recent earthquake activity has been reported nearby.
Minimum magnitude displayed is 2.5.

Coastal Water Temperatures

Place Temperature
No Stations Reporting

Nearby Weather Stations

Station Location Temp. Dew Point Humidity Wind Precip. Elev Updated Type
derby downs, Watertown, SD 57.6 °F 56 °F 93% North  at  0.0 mph - / hr 1810 ft 6:54 AM CDT Normal
South Lake Pelican, Watertown, SD 53.2 °F 52 °F 96% North  at  0.0 mph 0.00 in / hr 1726 ft 7:04 AM CDT Rapid Fire
East side of Watertown, SD, Watertown, SD 54.5 °F 52 °F 93% ENE  at  0.0 mph - / hr 1732 ft 7:03 AM CDT Normal
Turkey Ridge, Watertown, SD 53.4 °F 51 °F 91% ENE  at  1.0 mph 0.00 in / hr 1795 ft 6:59 AM CDT Normal
Hamlin County Courthouse, Hayti, SD 55.9 °F 54 °F 93% WNW  at  0.0 mph 0.00 in / hr 1700 ft 7:04 AM CDT Rapid Fire
Kent, Florence, SD 57.5 °F 56 °F 96% North  at  0.0 mph 0.00 in / hr 1801 ft 7:00 AM CDT Normal
Bradley, SD 56.7 °F 55 °F 95% West  at  0.7 mph 0.00 in / hr 1827 ft 9:00 AM UYT Normal
Rural Summit, Summit, SD 53.8 °F 54 °F 99% East  at  0.0 mph - / hr 1913 ft 6:57 AM CDT Normal

Show More Stations Show Fewer Stations